Rhea I Bouchard — WRQ4509 — position and weather

sailwx.info

Track history (hours):
 
Tides and Currents Weather Stations Pressure Air Temp Water Temp Dewpoint Dewpoint Depression Visibility Wind Speed Wind Dir Waves Ship Positions

Rhea I Bouchard

Owner: BOUCHARD TRANSPORTATION, MELVILLE, NY. More information available from US FCC via Universal Licensing System and Coast Guard Vessel Documentation Center.

Last reported at 2017-Oct-20 16:13 UTC. Time now 2017-Oct-20 17:57 UTC.
Position N 42°06' W 070°31'.

Length 162 m; draft 5.6 m.

MMSI: 367006540.

Date/timePositionNaut miles runAvg speedWind from/ knotsBaromVisibWave heightAir tempDewpointWater temp
2017-Oct-20 16:13N 42°06' W 070°31'210.3
2017-Oct-20 16:00N 42°09' W 070°32'510.0
2017-Oct-20 15:30N 42°13' W 070°35'510.0
2017-Oct-20 15:00N 42°17' W 070°40'5 9.8
2017-Oct-20 14:30N 42°20' W 070°44'8 7.8
2017-Oct-20 13:30N 42°21' W 070°55'4 8.4
2017-Oct-20 13:00N 42°20' W 070°60'3 7.0
2017-Oct-20 12:30N 42°23' W 071°03'1 0.1
2017-Oct-20 07:52N 42°23' W 071°03'0 0.0
2017-Oct-20 06:46N 42°23' W 071°03'0 0.0
2017-Oct-20 02:22N 42°23' W 071°03'0 0.0
2017-Oct-19 20:46N 42°23' W 071°03'0 0.0
2017-Oct-19 20:28N 42°23' W 071°03'0 0.0
2017-Oct-19 19:31N 42°23' W 071°03'0 0.0
2017-Oct-19 19:07N 42°23' W 071°03'0 0.0
2017-Oct-19 17:33N 42°23' W 071°03'0 0.0
2017-Oct-19 17:09N 42°23' W 071°03'0 0.0
2017-Oct-19 17:00N 42°23' W 071°03'0 0.0
2017-Oct-19 16:27N 42°23' W 071°03'0 0.0
2017-Oct-19 15:57N 42°23' W 071°03'0 0.0
2017-Oct-19 15:31N 42°23' W 071°03'0 0.0
2017-Oct-19 15:01N 42°23' W 071°03'0 0.3
2017-Oct-19 14:31N 42°23' W 071°03'1 1.1
2017-Oct-19 14:01N 42°23' W 071°03'4 7.2
2017-Oct-19 13:30N 42°20' W 070°60'5 9.9
2017-Oct-19 13:01N 42°22' W 070°54'5 9.3
2017-Oct-19 12:31N 42°22' W 070°47'5 9.9
2017-Oct-19 12:00N 42°19' W 070°43'5 9.8
2017-Oct-19 11:30N 42°15' W 070°38'5 9.8
2017-Oct-19 11:00N 42°12' W 070°33'5 9.2
2017-Oct-19 10:30N 42°08' W 070°30'5 9.7
2017-Oct-19 10:00N 42°03' W 070°29'5 9.5
2017-Oct-19 09:30N 41°58' W 070°28'5 9.7
2017-Oct-19 09:01N 41°53' W 070°27'5 9.8
2017-Oct-19 08:31N 41°48' W 070°27'62 6.6
2017-Oct-18 23:13N 41°07' W 071°28'2 7.8
2017-Oct-18 22:58N 41°06' W 071°31'101 9.3
2017-Oct-18 12:06N 40°32' W 073°36'2 9.9
2017-Oct-18 11:52N 40°31' W 073°39'4 9.9
2017-Oct-18 11:29N 40°30' W 073°43'5 9.9
2017-Oct-18 11:00N 40°29' W 073°50'4 8.8
2017-Oct-18 10:30N 40°29' W 073°55'4 8.4
2017-Oct-18 10:00N 40°31' W 074°00'4 8.1
2017-Oct-18 09:31N 40°35' W 074°02'4 8.3
2017-Oct-18 09:01N 40°39' W 074°04'4 7.0
2017-Oct-18 08:31N 40°39' W 074°09'3 6.5
2017-Oct-18 08:00N 40°37' W 074°12'0 0.3
2017-Oct-18 07:30N 40°36' W 074°12'0 0.0
2017-Oct-18 07:00N 40°36' W 074°12'0 0.0
2017-Oct-18 06:30N 40°36' W 074°12'0 0.1
2017-Oct-18 06:00N 40°36' W 074°12'0 0.0
2017-Oct-18 05:30N 40°36' W 074°12'0 0.0
2017-Oct-18 05:01N 40°36' W 074°12'0 0.0
2017-Oct-18 04:31N 40°36' W 074°12'0 0.0
2017-Oct-18 04:01N 40°36' W 074°12'0 0.0
2017-Oct-18 03:30N 40°36' W 074°12'0 0.0
2017-Oct-18 03:00N 40°36' W 074°12'3 5.5
2017-Oct-18 02:28N 40°33' W 074°13'1 1.5
2017-Oct-18 01:55N 40°33' W 074°14'0 0.5
2017-Oct-18 01:30N 40°33' W 074°14'0 0.6
2017-Oct-18 00:59N 40°33' W 074°14'0 0.0
2017-Oct-18 00:29N 40°34' W 074°14'0 0.0
2017-Oct-17 23:58N 40°34' W 074°14'0 0.0
2017-Oct-17 22:57N 40°33' W 074°14'0 0.0
2017-Oct-17 21:25N 40°34' W 074°14'0 0.0
2017-Oct-17 20:51N 40°34' W 074°14'0 0.0
2017-Oct-17 20:27N 40°34' W 074°14'0 0.0
2017-Oct-17 20:00N 40°33' W 074°14'0 0.2
2017-Oct-17 19:27N 40°33' W 074°14'0 0.0
2017-Oct-17 18:59N 40°33' W 074°14'0 0.0
2017-Oct-17 18:25N 40°33' W 074°14'0 0.0
2017-Oct-17 17:59N 40°33' W 074°14'0 0.0
2017-Oct-17 17:24N 40°33' W 074°14'0 0.0
2017-Oct-17 17:00N 40°33' W 074°14'0 0.0
2017-Oct-17 16:30N 40°33' W 074°14'2 3.8
2017-Oct-17 16:00N 40°35' W 074°13'4 8.1
2017-Oct-17 15:31N 40°39' W 074°11'3 6.5
2017-Oct-17 15:01N 40°39' W 074°07'0 0.0
2017-Oct-17 14:31N 40°39' W 074°07'0 0.0
2017-Oct-17 14:00N 40°39' W 074°07'1 2.0
2017-Oct-17 13:31N 40°39' W 074°06'0 0.0
2017-Oct-17 13:01N 40°39' W 074°06'0 0.0
2017-Oct-17 12:31N 40°39' W 074°06'0 0.1
2017-Oct-17 12:01N 40°39' W 074°06'4 8.3
2017-Oct-17 11:31N 40°41' W 074°01'1 1.8
2017-Oct-17 11:01N 40°42' W 074°00'1 2.2
2017-Oct-17 10:31N 40°41' W 074°01'4 8.4
2017-Oct-17 10:01N 40°39' W 074°06'1 1.1
2017-Oct-17 09:30N 40°39' W 074°07'0 0.0
2017-Oct-17 09:00N 40°39' W 074°07'0 0.1
2017-Oct-17 08:31N 40°39' W 074°07'0 0.0
2017-Oct-17 08:01N 40°39' W 074°07'0 0.0
2017-Oct-17 07:31N 40°39' W 074°07'0 0.0
2017-Oct-17 07:00N 40°39' W 074°07'0 0.0
2017-Oct-17 06:31N 40°39' W 074°07'0 0.0
2017-Oct-17 06:01N 40°39' W 074°07'0 0.0
2017-Oct-17 05:31N 40°39' W 074°07'0 0.0
2017-Oct-17 05:00N 40°39' W 074°07'0 0.0
2017-Oct-17 04:31N 40°39' W 074°07'0 0.0
2017-Oct-17 04:00N 40°39' W 074°07'2 3.5
2017-Oct-17 03:30N 40°39' W 074°09'3 6.5
2017-Oct-17 03:00N 40°36' W 074°12'0 0.2
2017-Oct-17 02:30N 40°36' W 074°12'0 0.0
2017-Oct-17 01:58N 40°36' W 074°12'1 1.1
2017-Oct-17 01:30N 40°37' W 074°12'4 7.7
2017-Oct-17 01:01N 40°39' W 074°08'4 8.3
2017-Oct-17 00:31N 40°40' W 074°03'5 9.3
2017-Oct-17 00:01N 40°43' W 073°58'4 7.9
2017-Oct-16 23:31N 40°47' W 073°56'4 7.2
2017-Oct-16 23:00N 40°48' W 073°51'46 9.2
2017-Oct-16 18:02N 41°05' W 072°55'2 9.7
2017-Oct-16 17:47N 41°05' W 072°52'3 9.6
2017-Oct-16 17:31N 41°06' W 072°49'5 9.4
2017-Oct-16 17:01N 41°07' W 072°43'5 9.2
2017-Oct-16 16:31N 41°08' W 072°37'4 8.8
2017-Oct-16 16:01N 41°09' W 072°31'4 8.6
2017-Oct-16 15:30N 41°11' W 072°25'52 8.7
2017-Oct-16 09:31N 41°30' W 071°21'010.4
2017-Oct-16 09:28N 41°30' W 071°21'7 9.5
2017-Oct-16 08:44N 41°37' W 071°18'2 9.2
2017-Oct-16 08:30N 41°39' W 071°19'5 9.2
2017-Oct-16 08:00N 41°43' W 071°21'4 7.9
2017-Oct-16 07:30N 41°47' W 071°22'0 0.0
2017-Oct-15 11:23N 41°47' W 071°22'0 0.0
2017-Oct-15 10:42N 41°47' W 071°22'0 0.6
2017-Oct-15 10:29N 41°47' W 071°22'0 0.0
2017-Oct-15 02:51N 41°47' W 071°22'0 0.0
2017-Oct-15 02:30N 41°47' W 071°22'0 0.8
2017-Oct-15 01:59N 41°46' W 071°22'4 8.3
2017-Oct-15 01:30N 41°43' W 071°20'5 9.6
2017-Oct-15 00:58N 41°38' W 071°18'4 9.1
2017-Oct-15 00:30N 41°34' W 071°19'124 5.3
2017-Oct-14 01:08N 40°30' W 073°40'3 8.7
2017-Oct-14 00:49N 40°30' W 073°43'3 8.7
2017-Oct-14 00:27N 40°30' W 073°47'4 8.6
2017-Oct-14 00:00N 40°30' W 073°53'5 9.3
2017-Oct-13 23:30N 40°31' W 073°58'5 9.4
2017-Oct-13 23:00N 40°34' W 074°02'5 9.8
2017-Oct-13 22:30N 40°39' W 074°04'5 9.8
2017-Oct-13 22:00N 40°39' W 074°11'2 3.3
2017-Oct-13 21:30N 40°38' W 074°12'0 0.0
2017-Oct-13 21:00N 40°38' W 074°12'0 0.0
2017-Oct-13 20:29N 40°38' W 074°12'2 3.8
2017-Oct-13 20:00N 40°36' W 074°12'0 0.0
2017-Oct-13 19:29N 40°36' W 074°12'0 0.0
2017-Oct-13 19:00N 40°36' W 074°12'0 0.0
2017-Oct-13 18:22N 40°36' W 074°12'0 0.0
2017-Oct-13 18:00N 40°36' W 074°12'0 0.0
2017-Oct-13 17:29N 40°36' W 074°12'0 0.0
2017-Oct-13 17:00N 40°36' W 074°12'0 0.0
2017-Oct-13 16:30N 40°36' W 074°12'0 0.0
2017-Oct-13 15:59N 40°36' W 074°12'0 0.0
2017-Oct-13 15:30N 40°36' W 074°12'0 0.0
2017-Oct-13 15:00N 40°36' W 074°12'0 0.0
2017-Oct-13 14:30N 40°36' W 074°12'0 0.0
2017-Oct-13 14:00N 40°36' W 074°12'0 0.0
2017-Oct-13 13:20N 40°36' W 074°12'0 0.0
2017-Oct-13 13:00N 40°36' W 074°12'0 0.0
2017-Oct-13 12:29N 40°36' W 074°12'3 5.7
2017-Oct-13 12:00N 40°33' W 074°14'0 0.5
2017-Oct-13 11:30N 40°33' W 074°15'0 0.0
2017-Oct-13 11:00N 40°33' W 074°15'0 0.0
2017-Oct-13 10:30N 40°33' W 074°15'0 0.0
2017-Oct-13 10:00N 40°33' W 074°15'0 0.0
2017-Oct-13 09:30N 40°33' W 074°15'0 0.0
2017-Oct-13 09:00N 40°33' W 074°15'0 0.0
2017-Oct-13 08:30N 40°33' W 074°15'0 0.0
2017-Oct-13 08:00N 40°33' W 074°15'0 0.0
2017-Oct-13 07:30N 40°33' W 074°15'0 0.0
2017-Oct-13 07:00N 40°33' W 074°15'0 0.0
2017-Oct-13 06:29N 40°33' W 074°15'0 0.0
2017-Oct-13 06:00N 40°33' W 074°15'0 0.0
2017-Oct-13 05:30N 40°33' W 074°15'0 0.0
2017-Oct-13 05:00N 40°33' W 074°15'0 0.0
2017-Oct-13 04:30N 40°33' W 074°15'0 0.0
2017-Oct-13 03:59N 40°33' W 074°15'1 1.6
2017-Oct-13 03:30N 40°33' W 074°15'0 0.1
2017-Oct-13 03:00N 40°33' W 074°15'1 2.9
2017-Oct-13 02:30N 40°33' W 074°13'3 6.8
2017-Oct-13 02:00N 40°37' W 074°12'3 6.3
2017-Oct-13 01:30N 40°39' W 074°09'1 2.8
2017-Oct-13 01:00N 40°39' W 074°07'0 0.0
2017-Oct-13 00:30N 40°39' W 074°07'1 1.8
2017-Oct-13 00:00N 40°39' W 074°06'5 9.2
2017-Oct-12 23:30N 40°41' W 074°01'4 7.4
2017-Oct-12 23:00N 40°44' W 073°58'2 4.1
2017-Oct-12 22:30N 40°42' W 073°59'1 2.6
2017-Oct-12 22:00N 40°41' W 074°00'0 0.6
2017-Oct-12 21:30N 40°42' W 074°00'0 0.2
2017-Oct-12 21:00N 40°42' W 074°00'0 0.7
2017-Oct-12 20:30N 40°41' W 074°00'0 0.2
2017-Oct-12 19:59N 40°41' W 074°00'0 0.2
2017-Oct-12 19:30N 40°41' W 074°00'3 6.1
2017-Oct-12 19:00N 40°39' W 074°03'3 6.1
2017-Oct-12 18:30N 40°39' W 074°07'0 0.0
2017-Oct-12 18:00N 40°39' W 074°07'0 0.0
2017-Oct-12 17:30N 40°39' W 074°07'0 0.0
2017-Oct-12 17:00N 40°39' W 074°07'0 0.0
2017-Oct-12 16:30N 40°38' W 074°07'2 3.6
2017-Oct-12 16:00N 40°39' W 074°09'2 4.8
2017-Oct-12 15:30N 40°38' W 074°12'0 0.0
2017-Oct-12 15:00N 40°38' W 074°12'0 0.1
2017-Oct-12 14:30N 40°38' W 074°12'2 4.3
2017-Oct-12 14:00N 40°39' W 074°10'4 7.4
2017-Oct-12 13:30N 40°39' W 074°05'2 3.7
2017-Oct-12 13:00N 40°39' W 074°03'0 0.0
2017-Oct-12 12:25N 40°39' W 074°03'0 0.0
2017-Oct-12 11:55N 40°39' W 074°03'0 0.0
2017-Oct-12 11:28N 40°39' W 074°03'0 0.0
2017-Oct-12 10:58N 40°39' W 074°03'0 0.0
2017-Oct-12 10:25N 40°39' W 074°03'0 0.1
2017-Oct-12 09:58N 40°39' W 074°03'0 0.0
2017-Oct-12 09:28N 40°39' W 074°03'0 0.0
2017-Oct-12 08:55N 40°39' W 074°03'0 0.0
2017-Oct-12 08:28N 40°39' W 074°03'0 0.1
2017-Oct-12 07:58N 40°39' W 074°03'0 0.0
2017-Oct-12 07:28N 40°39' W 074°03'0 0.2
2017-Oct-12 06:55N 40°39' W 074°03'0 0.0
2017-Oct-12 06:28N 40°39' W 074°03'0 0.1
2017-Oct-12 05:58N 40°39' W 074°03'0 0.1
2017-Oct-12 05:28N 40°39' W 074°03'0 0.0
2017-Oct-12 04:58N 40°39' W 074°03'0 0.0
2017-Oct-12 04:28N 40°39' W 074°03'0 0.1
2017-Oct-12 03:58N 40°39' W 074°03'0 0.1
2017-Oct-12 03:28N 40°39' W 074°03'0 0.1
2017-Oct-12 02:58N 40°39' W 074°03'0 0.0
2017-Oct-12 02:28N 40°39' W 074°03'0 0.1
2017-Oct-12 01:55N 40°39' W 074°03'0 0.1
2017-Oct-12 01:28N 40°39' W 074°03'2 3.3
2017-Oct-12 01:00N 40°39' W 074°05'2 3.8
2017-Oct-12 00:30N 40°39' W 074°07'0 0.0
2017-Oct-12 00:00N 40°39' W 074°07'0 0.0
2017-Oct-11 22:17N 40°39' W 074°07'0 0.0
2017-Oct-11 22:00N 40°39' W 074°07'0 0.0
2017-Oct-11 21:30N 40°39' W 074°07'0 0.0
2017-Oct-11 21:00N 40°39' W 074°07'0 0.0
2017-Oct-11 20:29N 40°39' W 074°07'0 0.0
2017-Oct-11 20:00N 40°39' W 074°07'0 0.0
2017-Oct-11 19:30N 40°39' W 074°07'0 0.0
2017-Oct-11 19:00N 40°39' W 074°07'0 0.0
2017-Oct-11 18:30N 40°39' W 074°07'0 0.0
2017-Oct-11 18:00N 40°39' W 074°07'0 0.0
2017-Oct-11 17:30N 40°39' W 074°07'0 0.0
2017-Oct-11 17:00N 40°39' W 074°07'  
Track history (hours):
 
Tides and Currents Weather Stations Pressure Air Temp Water Temp Dewpoint Dewpoint Depression Visibility Wind Speed Wind Dir Waves Ship Positions

Rhea I Bouchard

Owner: BOUCHARD TRANSPORTATION, MELVILLE, NY. More information available from US FCC via Universal Licensing System and Coast Guard Vessel Documentation Center.

Last reported at 2017-Oct-20 16:13 UTC. Time now 2017-Oct-20 17:57 UTC.
Position N 42°06' W 070°31'.

Length 162 m; draft 5.6 m.

MMSI: 367006540.

Date/timePositionNaut miles runAvg speedWind from/ knotsBaromVisibWave heightAir tempDewpointWater temp
2017-Oct-20 16:13N 42°06' W 070°31'210.3
2017-Oct-20 16:00N 42°09' W 070°32'510.0
2017-Oct-20 15:30N 42°13' W 070°35'510.0
2017-Oct-20 15:00N 42°17' W 070°40'5 9.8
2017-Oct-20 14:30N 42°20' W 070°44'8 7.8
2017-Oct-20 13:30N 42°21' W 070°55'4 8.4
2017-Oct-20 13:00N 42°20' W 070°60'3 7.0
2017-Oct-20 12:30N 42°23' W 071°03'1 0.1
2017-Oct-20 07:52N 42°23' W 071°03'0 0.0
2017-Oct-20 06:46N 42°23' W 071°03'0 0.0
2017-Oct-20 02:22N 42°23' W 071°03'0 0.0
2017-Oct-19 20:46N 42°23' W 071°03'0 0.0
2017-Oct-19 20:28N 42°23' W 071°03'0 0.0
2017-Oct-19 19:31N 42°23' W 071°03'0 0.0
2017-Oct-19 19:07N 42°23' W 071°03'0 0.0
2017-Oct-19 17:33N 42°23' W 071°03'0 0.0
2017-Oct-19 17:09N 42°23' W 071°03'0 0.0
2017-Oct-19 17:00N 42°23' W 071°03'0 0.0
2017-Oct-19 16:27N 42°23' W 071°03'0 0.0
2017-Oct-19 15:57N 42°23' W 071°03'0 0.0
2017-Oct-19 15:31N 42°23' W 071°03'0 0.0
2017-Oct-19 15:01N 42°23' W 071°03'0 0.3
2017-Oct-19 14:31N 42°23' W 071°03'1 1.1
2017-Oct-19 14:01N 42°23' W 071°03'4 7.2
2017-Oct-19 13:30N 42°20' W 070°60'5 9.9
2017-Oct-19 13:01N 42°22' W 070°54'5 9.3
2017-Oct-19 12:31N 42°22' W 070°47'5 9.9
2017-Oct-19 12:00N 42°19' W 070°43'5 9.8
2017-Oct-19 11:30N 42°15' W 070°38'5 9.8
2017-Oct-19 11:00N 42°12' W 070°33'5 9.2
2017-Oct-19 10:30N 42°08' W 070°30'5 9.7
2017-Oct-19 10:00N 42°03' W 070°29'5 9.5
2017-Oct-19 09:30N 41°58' W 070°28'5 9.7
2017-Oct-19 09:01N 41°53' W 070°27'5 9.8
2017-Oct-19 08:31N 41°48' W 070°27'62 6.6
2017-Oct-18 23:13N 41°07' W 071°28'2 7.8
2017-Oct-18 22:58N 41°06' W 071°31'101 9.3
2017-Oct-18 12:06N 40°32' W 073°36'2 9.9
2017-Oct-18 11:52N 40°31' W 073°39'4 9.9
2017-Oct-18 11:29N 40°30' W 073°43'5 9.9
2017-Oct-18 11:00N 40°29' W 073°50'4 8.8
2017-Oct-18 10:30N 40°29' W 073°55'4 8.4
2017-Oct-18 10:00N 40°31' W 074°00'4 8.1
2017-Oct-18 09:31N 40°35' W 074°02'4 8.3
2017-Oct-18 09:01N 40°39' W 074°04'4 7.0
2017-Oct-18 08:31N 40°39' W 074°09'3 6.5
2017-Oct-18 08:00N 40°37' W 074°12'0 0.3
2017-Oct-18 07:30N 40°36' W 074°12'0 0.0
2017-Oct-18 07:00N 40°36' W 074°12'0 0.0
2017-Oct-18 06:30N 40°36' W 074°12'0 0.1
2017-Oct-18 06:00N 40°36' W 074°12'0 0.0
2017-Oct-18 05:30N 40°36' W 074°12'0 0.0
2017-Oct-18 05:01N 40°36' W 074°12'0 0.0
2017-Oct-18 04:31N 40°36' W 074°12'0 0.0
2017-Oct-18 04:01N 40°36' W 074°12'0 0.0
2017-Oct-18 03:30N 40°36' W 074°12'0 0.0
2017-Oct-18 03:00N 40°36' W 074°12'3 5.5
2017-Oct-18 02:28N 40°33' W 074°13'1 1.5
2017-Oct-18 01:55N 40°33' W 074°14'0 0.5
2017-Oct-18 01:30N 40°33' W 074°14'0 0.6
2017-Oct-18 00:59N 40°33' W 074°14'0 0.0
2017-Oct-18 00:29N 40°34' W 074°14'0 0.0
2017-Oct-17 23:58N 40°34' W 074°14'0 0.0
2017-Oct-17 22:57N 40°33' W 074°14'0 0.0
2017-Oct-17 21:25N 40°34' W 074°14'0 0.0
2017-Oct-17 20:51N 40°34' W 074°14'0 0.0
2017-Oct-17 20:27N 40°34' W 074°14'0 0.0
2017-Oct-17 20:00N 40°33' W 074°14'0 0.2
2017-Oct-17 19:27N 40°33' W 074°14'0 0.0
2017-Oct-17 18:59N 40°33' W 074°14'0 0.0
2017-Oct-17 18:25N 40°33' W 074°14'0 0.0
2017-Oct-17 17:59N 40°33' W 074°14'0 0.0
2017-Oct-17 17:24N 40°33' W 074°14'0 0.0
2017-Oct-17 17:00N 40°33' W 074°14'0 0.0
2017-Oct-17 16:30N 40°33' W 074°14'2 3.8
2017-Oct-17 16:00N 40°35' W 074°13'4 8.1
2017-Oct-17 15:31N 40°39' W 074°11'3 6.5
2017-Oct-17 15:01N 40°39' W 074°07'0 0.0
2017-Oct-17 14:31N 40°39' W 074°07'0 0.0
2017-Oct-17 14:00N 40°39' W 074°07'1 2.0
2017-Oct-17 13:31N 40°39' W 074°06'0 0.0
2017-Oct-17 13:01N 40°39' W 074°06'0 0.0
2017-Oct-17 12:31N 40°39' W 074°06'0 0.1
2017-Oct-17 12:01N 40°39' W 074°06'4 8.3
2017-Oct-17 11:31N 40°41' W 074°01'1 1.8
2017-Oct-17 11:01N 40°42' W 074°00'1 2.2
2017-Oct-17 10:31N 40°41' W 074°01'4 8.4
2017-Oct-17 10:01N 40°39' W 074°06'1 1.1
2017-Oct-17 09:30N 40°39' W 074°07'0 0.0
2017-Oct-17 09:00N 40°39' W 074°07'0 0.1
2017-Oct-17 08:31N 40°39' W 074°07'0 0.0
2017-Oct-17 08:01N 40°39' W 074°07'0 0.0
2017-Oct-17 07:31N 40°39' W 074°07'0 0.0
2017-Oct-17 07:00N 40°39' W 074°07'0 0.0
2017-Oct-17 06:31N 40°39' W 074°07'0 0.0
2017-Oct-17 06:01N 40°39' W 074°07'0 0.0
2017-Oct-17 05:31N 40°39' W 074°07'0 0.0
2017-Oct-17 05:00N 40°39' W 074°07'0 0.0
2017-Oct-17 04:31N 40°39' W 074°07'0 0.0
2017-Oct-17 04:00N 40°39' W 074°07'2 3.5
2017-Oct-17 03:30N 40°39' W 074°09'3 6.5
2017-Oct-17 03:00N 40°36' W 074°12'0 0.2
2017-Oct-17 02:30N 40°36' W 074°12'0 0.0
2017-Oct-17 01:58N 40°36' W 074°12'1 1.1
2017-Oct-17 01:30N 40°37' W 074°12'4 7.7
2017-Oct-17 01:01N 40°39' W 074°08'4 8.3
2017-Oct-17 00:31N 40°40' W 074°03'5 9.3
2017-Oct-17 00:01N 40°43' W 073°58'4 7.9
2017-Oct-16 23:31N 40°47' W 073°56'4 7.2
2017-Oct-16 23:00N 40°48' W 073°51'46 9.2
2017-Oct-16 18:02N 41°05' W 072°55'2 9.7
2017-Oct-16 17:47N 41°05' W 072°52'3 9.6
2017-Oct-16 17:31N 41°06' W 072°49'5 9.4
2017-Oct-16 17:01N 41°07' W 072°43'5 9.2
2017-Oct-16 16:31N 41°08' W 072°37'4 8.8
2017-Oct-16 16:01N 41°09' W 072°31'4 8.6
2017-Oct-16 15:30N 41°11' W 072°25'52 8.7
2017-Oct-16 09:31N 41°30' W 071°21'010.4
2017-Oct-16 09:28N 41°30' W 071°21'7 9.5
2017-Oct-16 08:44N 41°37' W 071°18'2 9.2
2017-Oct-16 08:30N 41°39' W 071°19'5 9.2
2017-Oct-16 08:00N 41°43' W 071°21'4 7.9
2017-Oct-16 07:30N 41°47' W 071°22'0 0.0
2017-Oct-15 11:23N 41°47' W 071°22'0 0.0
2017-Oct-15 10:42N 41°47' W 071°22'0 0.6
2017-Oct-15 10:29N 41°47' W 071°22'0 0.0
2017-Oct-15 02:51N 41°47' W 071°22'0 0.0
2017-Oct-15 02:30N 41°47' W 071°22'0 0.8
2017-Oct-15 01:59N 41°46' W 071°22'4 8.3
2017-Oct-15 01:30N 41°43' W 071°20'5 9.6
2017-Oct-15 00:58N 41°38' W 071°18'4 9.1
2017-Oct-15 00:30N 41°34' W 071°19'124 5.3
2017-Oct-14 01:08N 40°30' W 073°40'3 8.7
2017-Oct-14 00:49N 40°30' W 073°43'3 8.7
2017-Oct-14 00:27N 40°30' W 073°47'4 8.6
2017-Oct-14 00:00N 40°30' W 073°53'5 9.3
2017-Oct-13 23:30N 40°31' W 073°58'5 9.4
2017-Oct-13 23:00N 40°34' W 074°02'5 9.8
2017-Oct-13 22:30N 40°39' W 074°04'5 9.8
2017-Oct-13 22:00N 40°39' W 074°11'2 3.3
2017-Oct-13 21:30N 40°38' W 074°12'0 0.0
2017-Oct-13 21:00N 40°38' W 074°12'0 0.0
2017-Oct-13 20:29N 40°38' W 074°12'2 3.8
2017-Oct-13 20:00N 40°36' W 074°12'0 0.0
2017-Oct-13 19:29N 40°36' W 074°12'0 0.0
2017-Oct-13 19:00N 40°36' W 074°12'0 0.0
2017-Oct-13 18:22N 40°36' W 074°12'0 0.0
2017-Oct-13 18:00N 40°36' W 074°12'0 0.0
2017-Oct-13 17:29N 40°36' W 074°12'0 0.0
2017-Oct-13 17:00N 40°36' W 074°12'0 0.0
2017-Oct-13 16:30N 40°36' W 074°12'0 0.0
2017-Oct-13 15:59N 40°36' W 074°12'0 0.0
2017-Oct-13 15:30N 40°36' W 074°12'0 0.0
2017-Oct-13 15:00N 40°36' W 074°12'0 0.0
2017-Oct-13 14:30N 40°36' W 074°12'0 0.0
2017-Oct-13 14:00N 40°36' W 074°12'0 0.0
2017-Oct-13 13:20N 40°36' W 074°12'0 0.0
2017-Oct-13 13:00N 40°36' W 074°12'0 0.0
2017-Oct-13 12:29N 40°36' W 074°12'3 5.7
2017-Oct-13 12:00N 40°33' W 074°14'0 0.5
2017-Oct-13 11:30N 40°33' W 074°15'0 0.0
2017-Oct-13 11:00N 40°33' W 074°15'0 0.0
2017-Oct-13 10:30N 40°33' W 074°15'0 0.0
2017-Oct-13 10:00N 40°33' W 074°15'0 0.0
2017-Oct-13 09:30N 40°33' W 074°15'0 0.0
2017-Oct-13 09:00N 40°33' W 074°15'0 0.0
2017-Oct-13 08:30N 40°33' W 074°15'0 0.0
2017-Oct-13 08:00N 40°33' W 074°15'0 0.0
2017-Oct-13 07:30N 40°33' W 074°15'0 0.0
2017-Oct-13 07:00N 40°33' W 074°15'0 0.0
2017-Oct-13 06:29N 40°33' W 074°15'0 0.0
2017-Oct-13 06:00N 40°33' W 074°15'0 0.0
2017-Oct-13 05:30N 40°33' W 074°15'0 0.0
2017-Oct-13 05:00N 40°33' W 074°15'0 0.0
2017-Oct-13 04:30N 40°33' W 074°15'0 0.0
2017-Oct-13 03:59N 40°33' W 074°15'1 1.6
2017-Oct-13 03:30N 40°33' W 074°15'0 0.1
2017-Oct-13 03:00N 40°33' W 074°15'1 2.9
2017-Oct-13 02:30N 40°33' W 074°13'3 6.8
2017-Oct-13 02:00N 40°37' W 074°12'3 6.3
2017-Oct-13 01:30N 40°39' W 074°09'1 2.8
2017-Oct-13 01:00N 40°39' W 074°07'0 0.0
2017-Oct-13 00:30N 40°39' W 074°07'1 1.8
2017-Oct-13 00:00N 40°39' W 074°06'5 9.2
2017-Oct-12 23:30N 40°41' W 074°01'4 7.4
2017-Oct-12 23:00N 40°44' W 073°58'2 4.1
2017-Oct-12 22:30N 40°42' W 073°59'1 2.6
2017-Oct-12 22:00N 40°41' W 074°00'0 0.6
2017-Oct-12 21:30N 40°42' W 074°00'0 0.2
2017-Oct-12 21:00N 40°42' W 074°00'0 0.7
2017-Oct-12 20:30N 40°41' W 074°00'0 0.2
2017-Oct-12 19:59N 40°41' W 074°00'0 0.2
2017-Oct-12 19:30N 40°41' W 074°00'3 6.1
2017-Oct-12 19:00N 40°39' W 074°03'3 6.1
2017-Oct-12 18:30N 40°39' W 074°07'0 0.0
2017-Oct-12 18:00N 40°39' W 074°07'0 0.0
2017-Oct-12 17:30N 40°39' W 074°07'0 0.0
2017-Oct-12 17:00N 40°39' W 074°07'0 0.0
2017-Oct-12 16:30N 40°38' W 074°07'2 3.6
2017-Oct-12 16:00N 40°39' W 074°09'2 4.8
2017-Oct-12 15:30N 40°38' W 074°12'0 0.0
2017-Oct-12 15:00N 40°38' W 074°12'0 0.1
2017-Oct-12 14:30N 40°38' W 074°12'2 4.3
2017-Oct-12 14:00N 40°39' W 074°10'4 7.4
2017-Oct-12 13:30N 40°39' W 074°05'2 3.7
2017-Oct-12 13:00N 40°39' W 074°03'0 0.0
2017-Oct-12 12:25N 40°39' W 074°03'0 0.0
2017-Oct-12 11:55N 40°39' W 074°03'0 0.0
2017-Oct-12 11:28N 40°39' W 074°03'0 0.0
2017-Oct-12 10:58N 40°39' W 074°03'0 0.0
2017-Oct-12 10:25N 40°39' W 074°03'0 0.1
2017-Oct-12 09:58N 40°39' W 074°03'0 0.0
2017-Oct-12 09:28N 40°39' W 074°03'0 0.0
2017-Oct-12 08:55N 40°39' W 074°03'0 0.0
2017-Oct-12 08:28N 40°39' W 074°03'0 0.1
2017-Oct-12 07:58N 40°39' W 074°03'0 0.0
2017-Oct-12 07:28N 40°39' W 074°03'0 0.2
2017-Oct-12 06:55N 40°39' W 074°03'0 0.0
2017-Oct-12 06:28N 40°39' W 074°03'0 0.1
2017-Oct-12 05:58N 40°39' W 074°03'0 0.1
2017-Oct-12 05:28N 40°39' W 074°03'0 0.0
2017-Oct-12 04:58N 40°39' W 074°03'0 0.0
2017-Oct-12 04:28N 40°39' W 074°03'0 0.1
2017-Oct-12 03:58N 40°39' W 074°03'0 0.1
2017-Oct-12 03:28N 40°39' W 074°03'0 0.1
2017-Oct-12 02:58N 40°39' W 074°03'0 0.0
2017-Oct-12 02:28N 40°39' W 074°03'0 0.1
2017-Oct-12 01:55N 40°39' W 074°03'0 0.1
2017-Oct-12 01:28N 40°39' W 074°03'2 3.3
2017-Oct-12 01:00N 40°39' W 074°05'2 3.8
2017-Oct-12 00:30N 40°39' W 074°07'0 0.0
2017-Oct-12 00:00N 40°39' W 074°07'0 0.0
2017-Oct-11 22:17N 40°39' W 074°07'0 0.0
2017-Oct-11 22:00N 40°39' W 074°07'0 0.0
2017-Oct-11 21:30N 40°39' W 074°07'0 0.0
2017-Oct-11 21:00N 40°39' W 074°07'0 0.0
2017-Oct-11 20:29N 40°39' W 074°07'0 0.0
2017-Oct-11 20:00N 40°39' W 074°07'0 0.0
2017-Oct-11 19:30N 40°39' W 074°07'0 0.0
2017-Oct-11 19:00N 40°39' W 074°07'0 0.0
2017-Oct-11 18:30N 40°39' W 074°07'0 0.0
2017-Oct-11 18:00N 40°39' W 074°07'0 0.0
2017-Oct-11 17:30N 40°39' W 074°07'0 0.0
2017-Oct-11 17:00N 40°39' W 074°07'  

Dump ship's entire track history